Time;durP1;ratioP1;P1;durP2;ratioP2;P2;SDS_P1;SDS_P2;PMS_P1;PMS_P2;Temp;Humidity;BMP_temperature;BMP_pressure;BME280_temperature;BME280_humidity;BME280_pressure;Samples;Min_cycle;Max_cycle;Signal;HPM_P1;HPM_P2
2022/11/05 00:16:42;;;;;;;9.98;3.03;;;7.70;99.90;;;;;;5015018;28;20042;-68
2022/11/05 00:16:51;;;;;;;6.63;2.77;;;7.60;99.90;;;;;;5014473;28;19921;-68
2022/11/05 00:19:17;;;;;;;8.63;3.40;;;7.60;99.90;;;;;;5014955;28;20342;-68
2022/11/05 00:27:11;;;;;;;13.40;3.03;;;7.50;99.90;;;;;;5014926;28;20375;-67
2022/11/05 00:29:37;;;;;;;9.97;3.50;;;7.50;99.90;;;;;;5014278;28;20372;-68
2022/11/05 00:32:02;;;;;;;11.90;3.17;;;7.60;99.90;;;;;;5013046;28;20042;-67
2022/11/05 00:34:28;;;;;;;10.13;3.20;;;7.60;99.90;;;;;;5014263;28;20091;-68
2022/11/05 00:36:54;;;;;;;11.23;2.73;;;7.60;99.90;;;;;;5014261;28;20050;-68
2022/11/05 00:39:20;;;;;;;13.47;3.60;;;7.50;99.90;;;;;;5014677;28;20440;-68
2022/11/05 00:44:58;;;;;;;11.37;3.23;;;7.50;99.90;;;;;;5014181;28;20281;-68
2022/11/05 00:50:00;;;;;;;10.50;3.13;;;7.40;99.90;;;;;;5014560;28;20372;-68
2022/11/05 00:55:09;;;;;;;7.27;2.40;;;7.40;99.90;;;;;;5013962;28;20544;-68
2022/11/05 00:57:35;;;;;;;13.63;3.47;;;7.40;99.90;;;;;;5012967;28;20327;-67
2022/11/05 01:00:01;;;;;;;7.97;2.50;;;7.30;99.90;;;;;;5013942;28;20046;-68
2022/11/05 01:02:26;;;;;;;12.20;2.60;;;7.30;99.90;;;;;;5013887;28;20077;-68
2022/11/05 01:04:52;;;;;;;8.63;2.80;;;7.40;99.90;;;;;;5013883;28;20064;-68
2022/11/05 01:07:18;;;;;;;11.03;2.77;;;7.30;99.90;;;;;;5014379;28;20584;-67
2022/11/05 01:09:43;;;;;;;10.50;3.13;;;7.30;99.90;;;;;;5012582;28;20500;-67
2022/11/05 01:12:09;;;;;;;7.13;2.70;;;7.30;99.90;;;;;;5013425;28;20038;-67
2022/11/05 01:14:35;;;;;;;8.13;2.57;;;7.20;99.90;;;;;;5013703;28;20050;-68
2022/11/05 01:17:00;;;;;;;8.80;2.50;;;7.20;99.90;;;;;;5014318;28;20053;-67
2022/11/05 01:19:28;;;;;;;9.30;2.90;;;7.20;99.90;;;;;;5014199;28;20393;-68
2022/11/05 01:21:53;;;;;;;4.90;2.23;;;7.20;99.90;;;;;;5013553;28;20046;-67
2022/11/05 01:24:19;;;;;;;7.90;2.60;;;7.10;99.90;;;;;;5012428;28;20296;-67
2022/11/05 01:26:45;;;;;;;8.20;2.90;;;7.10;99.90;;;;;;5014211;28;20104;-68
2022/11/05 01:29:10;;;;;;;5.37;2.20;;;7.00;99.90;;;;;;5013844;28;20049;-67
2022/11/05 01:31:36;;;;;;;5.90;2.23;;;7.00;99.90;;;;;;5013934;28;20493;-67
2022/11/05 01:34:02;;;;;;;5.30;2.40;;;7.00;99.90;;;;;;5013471;28;20054;-67
2022/11/05 01:36:27;;;;;;;6.87;2.97;;;7.10;99.90;;;;;;5013478;28;20504;-68
2022/11/05 01:38:53;;;;;;;6.77;2.20;;;7.00;99.90;;;;;;5013553;28;20057;-67
2022/11/05 01:41:18;;;;;;;6.97;2.50;;;7.10;99.90;;;;;;4996093;28;20042;-67
2022/11/05 01:43:53;;;;;;;9.00;2.97;;;7.00;99.90;;;;;;5013578;28;20103;-68
2022/11/05 01:46:26;;;;;;;8.73;2.60;;;7.00;99.90;;;;;;5013571;28;20054;-67
2022/11/05 01:48:55;;;;;;;7.27;2.73;;;7.00;99.90;;;;;;5013803;28;20129;-68
2022/11/05 01:51:25;;;;;;;5.53;1.90;;;7.10;99.90;;;;;;5013317;28;20663;-67
2022/11/05 01:54:05;;;;;;;7.57;2.30;;;7.00;99.90;;;;;;5013728;28;20292;-67
2022/11/05 01:56:39;;;;;;;10.57;2.37;;;7.00;99.90;;;;;;5013364;28;20283;-68
2022/11/05 01:59:25;;;;;;;8.65;2.33;;;7.00;99.90;;;;;;5013751;28;20653;-67
2022/11/05 02:01:53;;;;;;;5.73;2.20;;;7.00;99.90;;;;;;5013335;28;20544;-68
2022/11/05 02:04:30;;;;;;;8.83;2.50;;;7.00;99.90;;;;;;5013856;28;20625;-67
2022/11/05 02:06:56;;;;;;;6.47;2.40;;;7.00;99.90;;;;;;5017230;28;20327;-67
2022/11/05 02:09:28;;;;;;;8.83;3.30;;;7.00;99.90;;;;;;5016817;28;20371;-67
2022/11/05 02:11:54;;;;;;;7.90;2.60;;;7.00;99.90;;;;;;5016806;28;20300;-67
2022/11/05 02:14:20;;;;;;;6.80;2.60;;;7.00;99.90;;;;;;5015562;28;20343;-67
2022/11/05 02:16:55;;;;;;;8.73;2.77;;;7.00;99.90;;;;;;5017271;28;20049;-68
2022/11/05 02:19:45;;;;;;;6.20;2.85;;;7.00;99.90;;;;;;5017290;28;20280;-67
2022/11/05 02:22:13;;;;;;;7.20;2.70;;;6.90;99.90;;;;;;5016708;28;20089;-67
2022/11/05 02:25:18;;;;;;;6.27;2.40;;;7.00;99.90;;;;;;5016566;28;20308;-67
2022/11/05 02:27:58;;;;;;;8.80;2.30;;;6.90;99.90;;;;;;5016572;28;20368;-67
2022/11/05 02:30:49;;;;;;;10.70;2.63;;;6.90;99.90;;;;;;5016435;28;20285;-67
2022/11/05 02:33:31;;;;;;;7.47;2.50;;;7.00;99.90;;;;;;5016247;28;20752;-67
2022/11/05 02:36:27;;;;;;;6.97;2.30;;;7.00;99.90;;;;;;5017180;28;20281;-68
2022/11/05 02:39:21;;;;;;;;;;;7.10;99.90;;;;;;5017293;28;20276;-67
2022/11/05 02:42:11;;;;;;;8.57;2.40;;;7.10;99.90;;;;;;5017089;28;20266;-68
2022/11/05 02:44:52;;;;;;;7.10;1.80;;;7.20;99.90;;;;;;5015889;28;20765;-68
2022/11/05 02:47:20;;;;;;;8.30;2.60;;;7.20;99.90;;;;;;5014510;28;20295;-68
2022/11/05 02:49:56;;;;;;;8.20;2.30;;;7.30;99.90;;;;;;5016643;28;20285;-68
2022/11/05 02:52:37;;;;;;;8.97;1.80;;;7.30;99.90;;;;;;5016889;28;20303;-67
2022/11/05 02:55:23;;;;;;;6.47;1.60;;;7.30;99.90;;;;;;5016101;28;20316;-68
2022/11/05 02:57:49;;;;;;;7.23;1.90;;;7.30;99.90;;;;;;5014750;28;20331;-67
2022/11/05 03:00:37;;;;;;;10.37;1.97;;;7.30;99.90;;;;;;5016482;28;20289;-67
2022/11/05 03:03:04;;;;;;;6.57;1.77;;;7.30;99.90;;;;;;5014634;28;20125;-68
2022/11/05 03:05:43;;;;;;;8.67;1.80;;;7.30;99.90;;;;;;5016065;28;20751;-68
2022/11/05 03:08:21;;;;;;;7.43;1.83;;;7.20;99.90;;;;;;5016582;28;20659;-67
2022/11/05 03:11:13;;;;;;;10.77;3.37;;;7.30;99.90;;;;;;5016465;28;20296;-68
2022/11/05 03:14:13;;;;;;;14.53;3.07;;;7.30;99.90;;;;;;5015656;28;20280;-68
2022/11/05 03:16:51;;;;;;;12.27;2.60;;;7.30;99.90;;;;;;5013678;28;20315;-68
2022/11/05 03:19:27;;;;;;;9.97;3.47;;;7.30;99.90;;;;;;5014527;28;20269;-68
2022/11/05 03:22:00;;;;;;;10.23;2.40;;;7.30;99.90;;;;;;5016197;28;20309;-68
2022/11/05 03:24:47;;;;;;;6.27;2.50;;;7.30;99.90;;;;;;5016407;28;20429;-68
2022/11/05 03:27:22;;;;;;;9.93;2.63;;;7.30;99.90;;;;;;5015371;28;20336;-67
2022/11/05 03:30:09;;;;;;;9.60;2.72;;;7.30;99.90;;;;;;5015350;28;20277;-67
2022/11/05 03:32:39;;;;;;;8.53;1.87;;;7.30;99.90;;;;;;5015878;28;20435;-68
2022/11/05 03:35:12;;;;;;;9.60;2.73;;;7.30;99.90;;;;;;5015266;28;20286;-68
2022/11/05 03:37:42;;;;;;;9.00;1.70;;;7.20;99.90;;;;;;5015853;28;20265;-68
2022/11/05 03:40:10;;;;;;;6.13;2.00;;;7.20;99.90;;;;;;5015491;28;20042;-68
2022/11/05 03:42:40;;;;;;;8.10;1.70;;;7.20;99.90;;;;;;5014161;28;20296;-68
2022/11/05 03:45:15;;;;;;;7.87;1.90;;;7.20;99.90;;;;;;5013669;28;20289;-67
2022/11/05 03:47:43;;;;;;;7.70;1.95;;;7.20;99.90;;;;;;5015162;28;20292;-68
2022/11/05 03:50:15;;;;;;;5.43;1.60;;;7.20;99.90;;;;;;5014966;28;20085;-68
2022/11/05 03:52:47;;;;;;;6.23;1.77;;;7.30;99.90;;;;;;5014908;28;20335;-68
2022/11/05 03:55:14;;;;;;;8.30;2.13;;;7.30;99.90;;;;;;5014933;28;20304;-67
2022/11/05 03:57:43;;;;;;;5.10;1.60;;;7.30;99.90;;;;;;5014794;28;20334;-68
2022/11/05 04:00:09;;;;;;;5.97;1.40;;;7.30;99.90;;;;;;5014470;28;20635;-68
2022/11/05 04:02:37;;;;;;;4.53;1.50;;;7.30;99.90;;;;;;5013726;28;20277;-67
2022/11/05 04:05:03;;;;;;;6.37;1.63;;;7.30;99.90;;;;;;5014708;28;20326;-68
2022/11/05 04:18:26;;;;;;;7.03;1.73;;;7.30;99.90;;;;;;5014896;28;20368;-67
2022/11/05 04:26:22;;;;;;;8.83;2.27;;;7.20;99.90;;;;;;5014730;28;20276;-67
2022/11/05 04:31:36;;;;;;;8.10;2.03;;;7.20;99.90;;;;;;5014836;28;20301;-67
2022/11/05 04:34:02;;;;;;;9.23;2.13;;;7.20;99.90;;;;;;5014260;28;20283;-67
2022/11/05 04:36:28;;;;;;;14.17;2.10;;;7.10;99.90;;;;;;5015069;28;20281;-67
2022/11/05 04:38:54;;;;;;;5.37;2.30;;;7.10;99.90;;;;;;5014228;28;20671;-67
2022/11/05 04:41:19;;;;;;;8.43;2.37;;;7.20;99.90;;;;;;5014345;28;20088;-67
2022/11/05 04:43:45;;;;;;;9.13;2.80;;;7.20;99.90;;;;;;5014119;28;20046;-68
2022/11/05 04:46:11;;;;;;;10.27;2.80;;;7.10;99.90;;;;;;5014428;28;20054;-67
2022/11/05 04:48:37;;;;;;;10.70;3.07;;;7.20;99.90;;;;;;5013803;28;20100;-67
2022/11/05 04:51:03;;;;;;;8.20;3.20;;;7.20;99.90;;;;;;5013943;28;20081;-67
2022/11/05 04:53:30;;;;;;;10.03;3.10;;;7.20;99.90;;;;;;5014001;28;20321;-67
2022/11/05 04:56:09;;;;;;;9.43;3.07;;;7.30;99.90;;;;;;5013974;28;20291;-68
2022/11/05 04:58:38;;;;;;;8.10;3.23;;;7.20;99.90;;;;;;5013995;28;20283;-67
2022/11/05 05:01:04;;;;;;;10.67;3.50;;;7.20;99.90;;;;;;5013914;28;20309;-68
2022/11/05 05:03:29;;;;;;;10.83;3.47;;;7.20;99.90;;;;;;5013902;28;20277;-67
2022/11/05 05:05:58;;;;;;;8.73;3.47;;;7.20;99.90;;;;;;5013825;28;20057;-67
2022/11/05 05:08:23;;;;;;;11.40;4.00;;;7.20;99.90;;;;;;5013790;28;20069;-67
2022/11/05 05:10:49;;;;;;;9.00;3.90;;;7.20;99.90;;;;;;5013656;28;20304;-67
2022/11/05 05:13:15;;;;;;;8.40;4.07;;;7.20;99.90;;;;;;5013809;28;20046;-67
2022/11/05 05:15:40;;;;;;;16.50;4.60;;;7.20;99.90;;;;;;5012470;28;20072;-67
2022/11/05 05:18:08;;;;;;;11.90;4.93;;;7.30;99.90;;;;;;5014190;28;20175;-67
2022/11/05 05:23:17;;;;;;;11.03;4.67;;;7.30;99.90;;;;;;5013629;28;20288;-67
2022/11/05 05:25:43;;;;;;;12.87;5.83;;;7.40;99.90;;;;;;5014241;28;20277;-67
2022/11/05 05:28:09;;;;;;;15.07;5.53;;;7.40;99.90;;;;;;5014065;28;20167;-68
2022/11/05 05:30:34;;;;;;;12.13;5.73;;;7.50;99.90;;;;;;5014281;28;20048;-67
2022/11/05 05:33:02;;;;;;;8.37;4.60;;;7.50;99.90;;;;;;5014167;28;20481;-68
2022/11/05 05:35:28;;;;;;;13.20;5.27;;;7.50;99.90;;;;;;5014107;28;20054;-68
2022/11/05 05:37:55;;;;;;;11.70;5.13;;;7.60;99.90;;;;;;5014114;28;20372;-68
2022/11/05 05:40:22;;;;;;;8.37;4.43;;;7.60;99.90;;;;;;5015172;28;20049;-67
2022/11/05 05:42:55;;;;;;;10.70;4.70;;;7.60;99.90;;;;;;5017449;28;20280;-67
2022/11/05 05:45:20;;;;;;;11.93;5.13;;;7.60;99.90;;;;;;5017959;28;20656;-67
2022/11/05 05:47:46;;;;;;;10.03;5.03;;;7.60;99.90;;;;;;5017403;28;20331;-67
2022/11/05 05:50:12;;;;;;;9.50;4.80;;;7.50;99.90;;;;;;5016966;28;20050;-68
2022/11/05 05:52:37;;;;;;;10.47;5.03;;;7.50;99.90;;;;;;5017207;28;20049;-67
2022/11/05 05:55:03;;;;;;;10.30;4.60;;;7.50;99.90;;;;;;5017158;28;20072;-68
2022/11/05 05:57:29;;;;;;;7.97;4.37;;;7.50;99.90;;;;;;5016581;28;20041;-68
2022/11/05 05:59:55;;;;;;;8.00;4.60;;;7.40;99.90;;;;;;5017067;28;20292;-68
2022/11/05 06:02:21;;;;;;;11.23;4.40;;;7.40;99.90;;;;;;5017823;28;20045;-67
2022/11/05 06:04:47;;;;;;;12.90;4.30;;;7.40;99.90;;;;;;5017020;28;20064;-67
2022/11/05 06:07:12;;;;;;;8.30;3.83;;;7.30;99.90;;;;;;5016925;28;20285;-67
2022/11/05 06:09:38;;;;;;;8.27;4.17;;;7.30;99.90;;;;;;5016998;28;20045;-67
2022/11/05 06:12:04;;;;;;;14.90;5.17;;;7.30;99.90;;;;;;5017328;28;20042;-67
2022/11/05 06:14:30;;;;;;;12.60;4.43;;;7.20;99.90;;;;;;5016202;28;20089;-67
2022/11/05 06:16:55;;;;;;;10.47;5.00;;;7.20;99.90;;;;;;5016781;28;20285;-68
2022/11/05 06:19:21;;;;;;;10.53;4.33;;;7.20;99.90;;;;;;5016429;28;20084;-67
2022/11/05 06:21:47;;;;;;;11.33;4.53;;;7.20;99.90;;;;;;5016689;28;20074;-67
2022/11/05 06:24:12;;;;;;;13.53;4.33;;;7.10;99.90;;;;;;5015460;28;20042;-67
2022/11/05 06:26:41;;;;;;;10.33;4.37;;;7.10;99.90;;;;;;5016646;28;20046;-67
2022/11/05 06:29:09;;;;;;;12.53;5.20;;;7.10;99.90;;;;;;5016128;28;20567;-67
2022/11/05 06:31:34;;;;;;;13.00;4.70;;;7.10;99.90;;;;;;5016947;28;20301;-67
2022/11/05 06:34:00;;;;;;;11.67;4.73;;;7.10;99.90;;;;;;5015455;28;20346;-68
2022/11/05 06:36:26;;;;;;;12.53;4.70;;;7.10;99.90;;;;;;5016373;28;20483;-67
2022/11/05 06:38:52;;;;;;;14.10;4.47;;;7.00;99.90;;;;;;5016389;28;20551;-67
2022/11/05 06:41:17;;;;;;;11.10;4.90;;;7.00;99.90;;;;;;5014995;28;20046;-67
2022/11/05 06:43:43;;;;;;;12.37;5.03;;;7.10;99.90;;;;;;5016161;28;20389;-67
2022/11/05 06:46:10;;;;;;;8.67;4.30;;;7.10;99.90;;;;;;5016026;28;20132;-68
2022/11/05 06:48:35;;;;;;;13.27;4.80;;;7.00;99.90;;;;;;5016084;28;20050;-67
2022/11/05 06:51:01;;;;;;;9.87;4.60;;;7.00;99.90;;;;;;5016184;28;20311;-68
2022/11/05 06:53:27;;;;;;;8.93;4.90;;;7.00;99.90;;;;;;5016144;28;20180;-68
2022/11/05 06:55:53;;;;;;;13.93;5.13;;;7.00;99.90;;;;;;5016034;28;20276;-68
2022/11/05 06:58:19;;;;;;;10.67;4.90;;;7.00;99.90;;;;;;5016021;28;20053;-68
2022/11/05 07:00:44;;;;;;;14.00;5.00;;;7.00;99.90;;;;;;5015998;28;20077;-67
2022/11/05 07:03:11;;;;;;;11.20;4.93;;;7.00;99.90;;;;;;5016469;28;20136;-68
2022/11/05 07:05:41;;;;;;;8.33;4.30;;;7.00;99.90;;;;;;5016493;28;20042;-67
2022/11/05 07:08:06;;;;;;;9.53;4.20;;;7.00;99.90;;;;;;5016105;28;20331;-68
2022/11/05 07:10:32;;;;;;;11.47;4.80;;;7.00;99.90;;;;;;5016301;28;20280;-67
2022/11/05 07:12:58;;;;;;;11.13;4.67;;;7.00;99.90;;;;;;5016061;28;20050;-67
2022/11/05 07:15:24;;;;;;;13.23;4.30;;;7.00;99.90;;;;;;5015655;28;20132;-67
2022/11/05 07:17:49;;;;;;;8.63;4.43;;;7.00;99.90;;;;;;5015626;28;20050;-67
2022/11/05 07:20:15;;;;;;;8.43;4.70;;;7.00;99.90;;;;;;5015566;28;20042;-68
2022/11/05 07:22:41;;;;;;;11.97;5.67;;;7.00;99.90;;;;;;5015458;28;20057;-67
2022/11/05 07:25:07;;;;;;;13.30;6.43;;;7.00;99.90;;;;;;5015496;28;20045;-68
2022/11/05 07:27:39;;;;;;;16.17;6.00;;;7.00;99.90;;;;;;5015445;28;20042;-67
2022/11/05 07:30:09;;;;;;;10.20;4.57;;;7.00;99.90;;;;;;5015885;28;20281;-68
2022/11/05 07:32:39;;;;;;;8.03;4.43;;;7.10;99.90;;;;;;5015543;28;20304;-67
2022/11/05 07:35:06;;;;;;;12.80;4.20;;;7.10;99.90;;;;;;5015357;28;20281;-68
2022/11/05 07:37:32;;;;;;;7.70;4.00;;;7.10;99.90;;;;;;5015535;28;20308;-67
2022/11/05 07:39:57;;;;;;;10.13;4.70;;;7.10;99.90;;;;;;5014110;28;20752;-67
2022/11/05 07:42:23;;;;;;;10.57;4.70;;;7.10;99.90;;;;;;5015198;28;20041;-67
2022/11/05 07:44:49;;;;;;;9.93;5.50;;;7.20;99.90;;;;;;5015417;28;20125;-67
2022/11/05 07:47:14;;;;;;;9.30;6.03;;;7.20;99.90;;;;;;5014878;28;20109;-67
2022/11/05 07:49:40;;;;;;;12.27;6.80;;;7.20;99.90;;;;;;5013705;28;20493;-66
2022/11/05 07:52:05;;;;;;;9.10;4.97;;;7.30;99.90;;;;;;5014932;28;20042;-67
2022/11/05 07:54:31;;;;;;;9.57;4.53;;;7.30;99.90;;;;;;5014846;28;20054;-67
2022/11/05 07:56:57;;;;;;;13.03;5.30;;;7.30;99.90;;;;;;5014944;28;20046;-67
2022/11/05 07:59:22;;;;;;;7.17;4.60;;;7.40;99.90;;;;;;5013709;28;20141;-68
2022/11/05 08:01:48;;;;;;;9.83;5.43;;;7.40;99.90;;;;;;5015291;28;20042;-67
2022/11/05 08:04:14;;;;;;;8.00;4.80;;;7.50;99.90;;;;;;5014319;28;20050;-68
2022/11/05 08:06:39;;;;;;;8.60;4.73;;;7.50;99.90;;;;;;5014751;28;20057;-68
2022/11/05 08:09:05;;;;;;;10.37;4.70;;;7.60;99.90;;;;;;5013605;28;20052;-69
2022/11/05 08:11:31;;;;;;;8.60;4.67;;;7.60;99.90;;;;;;5014592;28;20092;-69
2022/11/05 08:13:56;;;;;;;9.60;5.43;;;7.60;99.90;;;;;;5014658;28;20084;-68
2022/11/05 08:16:22;;;;;;;13.50;5.47;;;7.70;99.90;;;;;;5014633;28;20469;-69
2022/11/05 08:18:48;;;;;;;9.00;4.60;;;7.70;99.90;;;;;;5014653;28;20077;-69
2022/11/05 08:21:14;;;;;;;7.70;5.13;;;7.80;99.90;;;;;;5014543;28;20041;-69
2022/11/05 08:23:41;;;;;;;9.23;5.10;;;7.80;99.90;;;;;;5015354;28;20050;-69
2022/11/05 08:26:07;;;;;;;9.57;4.70;;;7.90;99.90;;;;;;5015223;28;20072;-69
2022/11/05 08:28:32;;;;;;;11.40;5.00;;;7.90;99.90;;;;;;5014219;28;20728;-69
2022/11/05 08:30:58;;;;;;;11.20;5.10;;;8.00;99.90;;;;;;5014370;28;20173;-68
2022/11/05 08:33:24;;;;;;;9.30;5.20;;;8.10;99.90;;;;;;5014322;28;20042;-69
2022/11/05 08:35:50;;;;;;;9.83;5.37;;;8.20;99.90;;;;;;5014277;28;20132;-69
2022/11/05 08:38:18;;;;;;;8.60;4.50;;;8.30;99.90;;;;;;5014235;28;20416;-69
2022/11/05 08:40:53;;;;;;;15.60;6.67;;;8.40;99.90;;;;;;5014243;28;20046;-68
2022/11/05 08:43:19;;;;;;;9.17;5.27;;;8.50;99.90;;;;;;5014198;28;20317;-68
2022/11/05 08:45:45;;;;;;;13.47;6.47;;;8.60;99.90;;;;;;5014229;28;20390;-69
2022/11/05 08:48:15;;;;;;;10.87;6.07;;;8.70;99.90;;;;;;5014489;28;20525;-69
2022/11/05 08:50:42;;;;;;;8.77;5.40;;;8.80;99.90;;;;;;5014028;28;20054;-69
2022/11/05 08:53:09;;;;;;;9.30;5.13;;;8.90;99.90;;;;;;5014110;28;20629;-69
2022/11/05 08:55:35;;;;;;;13.17;4.93;;;9.00;99.90;;;;;;5013944;28;20283;-69
2022/11/05 08:58:06;;;;;;;9.90;4.20;;;9.10;99.90;;;;;;5014556;28;20368;-69
2022/11/05 09:00:35;;;;;;;9.20;4.07;;;9.10;99.90;;;;;;5014022;28;20279;-69
2022/11/05 09:03:03;;;;;;;10.33;4.90;;;9.20;99.90;;;;;;5013959;28;20331;-69
2022/11/05 09:05:30;;;;;;;10.27;4.93;;;9.30;99.90;;;;;;5013772;28;20280;-69
2022/11/05 09:07:56;;;;;;;15.87;5.10;;;9.40;99.90;;;;;;5013798;28;20277;-68
2022/11/05 09:10:22;;;;;;;7.93;4.77;;;9.40;99.90;;;;;;5013822;28;20299;-69
2022/11/05 09:12:48;;;;;;;7.93;4.30;;;9.40;99.90;;;;;;5013234;28;20381;-69
2022/11/05 09:15:13;;;;;;;9.70;4.53;;;9.40;99.90;;;;;;5015284;28;20373;-68
2022/11/05 09:17:39;;;;;;;8.73;3.93;;;9.40;99.90;;;;;;5017779;28;20084;-70
2022/11/05 09:20:06;;;;;;;6.77;3.90;;;9.40;99.90;;;;;;5016580;28;20129;-69
2022/11/05 09:22:32;;;;;;;9.87;3.90;;;9.50;99.90;;;;;;5016788;28;20099;-70
2022/11/05 09:24:57;;;;;;;8.57;3.77;;;9.50;99.90;;;;;;5017713;28;20292;-70
2022/11/05 09:27:23;;;;;;;7.03;3.80;;;9.50;99.90;;;;;;5017025;28;20042;-70
2022/11/05 09:29:48;;;;;;;6.70;3.47;;;9.50;99.90;;;;;;5017552;28;20050;-69
2022/11/05 09:32:18;;;;;;;8.87;3.67;;;9.50;99.90;;;;;;5017296;28;20092;-69
2022/11/05 09:34:44;;;;;;;10.50;4.20;;;9.50;99.90;;;;;;5017529;28;20132;-70
2022/11/05 09:37:10;;;;;;;7.50;4.07;;;9.50;99.90;;;;;;5017513;28;20280;-70
2022/11/05 09:39:36;;;;;;;8.30;3.87;;;9.50;99.90;;;;;;5017444;28;20799;-70
2022/11/05 09:42:10;;;;;;;9.03;3.90;;;9.60;99.90;;;;;;5017132;28;20284;-70
2022/11/05 09:44:46;;;;;;;7.68;3.67;;;9.60;99.90;;;;;;5018014;28;20049;-70
2022/11/05 09:47:21;;;;;;;7.03;3.40;;;9.60;99.90;;;;;;5017739;28;20133;-69
2022/11/05 09:49:51;;;;;;;9.13;3.92;;;9.60;99.90;;;;;;5016709;28;20300;-68
2022/11/05 09:52:26;;;;;;;8.20;3.37;;;9.60;99.90;;;;;;5017253;28;20528;-68
2022/11/05 09:54:53;;;;;;;6.03;3.33;;;9.60;99.90;;;;;;5017488;28;20292;-68
2022/11/05 09:57:24;;;;;;;8.67;3.73;;;9.70;99.90;;;;;;5017228;28;20284;-68
2022/11/05 09:59:54;;;;;;;7.57;3.30;;;9.70;99.90;;;;;;5017228;28;20277;-68
2022/11/05 10:02:24;;;;;;;9.73;3.70;;;9.80;99.90;;;;;;5017059;28;20748;-68
2022/11/05 10:04:54;;;;;;;9.60;4.10;;;9.80;99.90;;;;;;5017658;28;20636;-68
2022/11/05 10:07:24;;;;;;;7.97;3.13;;;9.90;99.90;;;;;;5017783;28;20281;-68
2022/11/05 10:10:03;;;;;;;9.60;3.17;;;9.90;99.90;;;;;;5017595;28;20269;-69
2022/11/05 10:12:50;;;;;;;9.50;3.40;;;10.00;99.90;;;;;;5017697;28;20289;-68
2022/11/05 10:15:23;;;;;;;7.50;3.40;;;10.10;99.90;;;;;;5016908;28;20283;-68
2022/11/05 10:18:03;;;;;;;11.37;3.50;;;10.10;99.90;;;;;;5016160;28;20324;-67
2022/11/05 10:20:35;;;;;;;9.47;3.50;;;10.10;99.90;;;;;;5017593;28;20273;-68
2022/11/05 10:23:15;;;;;;;7.80;3.60;;;10.20;99.90;;;;;;5016645;28;20285;-67
2022/11/05 10:25:55;;;;;;;8.37;3.50;;;10.20;99.90;;;;;;5016597;28;20280;-68
2022/11/05 10:28:23;;;;;;;7.63;3.30;;;10.20;99.90;;;;;;5016630;28;20265;-68
2022/11/05 10:30:55;;;;;;;7.83;3.80;;;10.20;99.90;;;;;;5016592;28;20281;-68
2022/11/05 10:33:52;;;;;;;9.57;3.27;;;10.30;99.90;;;;;;5016491;28;20281;-68
2022/11/05 10:36:22;;;;;;;8.80;3.23;;;10.40;99.90;;;;;;5016029;28;20360;-68
2022/11/05 10:38:48;;;;;;;8.40;3.37;;;10.40;99.90;;;;;;5016890;28;20284;-68
2022/11/05 10:41:30;;;;;;;9.87;2.80;;;10.40;99.90;;;;;;5016414;28;20776;-68
2022/11/05 10:44:16;;;;;;;6.27;2.87;;;10.40;99.90;;;;;;5016387;28;20281;-70
2022/11/05 10:46:54;;;;;;;8.93;2.90;;;10.50;99.90;;;;;;5016459;28;20297;-68
2022/11/05 10:49:33;;;;;;;7.30;2.73;;;10.50;99.90;;;;;;5015955;28;20807;-67
2022/11/05 10:52:13;;;;;;;7.13;2.90;;;10.50;99.90;;;;;;5014983;28;20388;-74
2022/11/05 10:54:39;;;;;;;9.33;3.30;;;10.50;99.90;;;;;;5016345;28;20277;-68
2022/11/05 10:57:27;;;;;;;10.27;3.20;;;10.60;99.90;;;;;;5014917;28;20283;-70
2022/11/05 10:59:54;;;;;;;8.80;2.33;;;10.60;99.90;;;;;;5016302;28;20276;-68
2022/11/05 11:02:27;;;;;;;7.50;2.77;;;10.70;99.90;;;;;;5015958;28;20269;-68
2022/11/05 11:04:54;;;;;;;6.93;2.10;;;10.80;99.90;;;;;;5015912;28;20281;-68
2022/11/05 11:07:23;;;;;;;8.63;2.33;;;10.80;99.90;;;;;;5015495;28;20850;-68
2022/11/05 11:09:50;;;;;;;7.60;2.17;;;10.90;99.90;;;;;;5016052;28;20289;-69
2022/11/05 11:12:33;;;;;;;8.13;2.50;;;10.90;99.90;;;;;;5015406;28;20301;-69
2022/11/05 11:15:03;;;;;;;13.43;2.93;;;11.00;99.90;;;;;;5015797;28;20273;-68
2022/11/05 11:17:31;;;;;;;10.67;2.40;;;11.00;99.90;;;;;;5015972;28;20277;-68
2022/11/05 11:20:21;;;;;;;5.37;1.80;;;11.00;99.90;;;;;;5015591;28;20277;-68
2022/11/05 11:23:08;;;;;;;8.10;2.37;;;11.00;99.90;;;;;;5016341;28;20276;-68
2022/11/05 11:26:02;;;;;;;7.57;2.00;;;11.00;99.90;;;;;;5015712;28;20811;-67
2022/11/05 11:28:39;;;;;;;6.17;2.20;;;11.00;99.90;;;;;;5015556;28;20277;-67
2022/11/05 11:31:11;;;;;;;8.37;2.30;;;11.00;99.90;;;;;;5015426;28;20779;-70
2022/11/05 11:33:39;;;;;;;6.17;1.80;;;11.10;99.90;;;;;;5015386;28;20343;-70
2022/11/05 11:36:06;;;;;;;6.23;2.00;;;11.00;99.90;;;;;;4997865;28;20346;-69
2022/11/05 11:38:35;;;;;;;4.80;1.90;;;11.00;99.90;;;;;;5014400;28;20291;-71
2022/11/05 11:41:24;;;;;;;5.20;1.60;;;11.00;99.90;;;;;;5015349;28;20309;-68
2022/11/05 11:43:55;;;;;;;5.43;1.63;;;11.00;99.90;;;;;;5014240;28;20296;-68
2022/11/05 11:46:21;;;;;;;6.97;1.50;;;11.00;99.90;;;;;;5014908;28;20301;-68
2022/11/05 11:48:48;;;;;;;3.13;1.00;;;10.90;99.90;;;;;;5015678;28;20303;-69
2022/11/05 11:51:29;;;;;;;3.77;1.10;;;10.90;99.90;;;;;;5014970;28;20046;-69
2022/11/05 11:53:58;;;;;;;3.60;1.20;;;10.80;99.90;;;;;;5014721;28;20853;-69
2022/11/05 11:56:23;;;;;;;4.37;1.03;;;10.80;99.90;;;;;;5014990;28;20624;-68
2022/11/05 11:58:59;;;;;;;4.67;1.00;;;10.80;99.90;;;;;;5014899;28;20360;-69
2022/11/05 12:01:48;;;;;;;5.83;1.10;;;10.70;99.90;;;;;;5014963;28;20049;-68
2022/11/05 12:04:39;;;;;;;4.67;1.50;;;10.70;99.90;;;;;;5014855;28;20368;-66
2022/11/05 12:07:33;;;;;;;2.83;1.20;;;10.70;99.90;;;;;;5015048;28;20293;-67
2022/11/05 12:10:22;;;;;;;3.03;1.40;;;10.60;99.90;;;;;;5014785;28;20281;-67
2022/11/05 12:13:18;;;;;;;3.67;1.10;;;10.60;99.90;;;;;;5014334;28;20358;-67
2022/11/05 12:15:59;;;;;;;2.50;1.20;;;10.60;99.90;;;;;;5014811;28;20308;-67
2022/11/05 12:18:46;;;;;;;5.90;1.40;;;10.60;99.90;;;;;;5014112;28;20285;-67
2022/11/05 12:21:40;;;;;;;4.77;1.17;;;10.60;99.90;;;;;;5014522;28;20368;-67
2022/11/05 12:24:28;;;;;;;5.63;1.70;;;10.60;99.90;;;;;;5014222;28;20291;-67
2022/11/05 12:26:54;;;;;;;6.40;1.73;;;10.50;99.90;;;;;;5014518;28;20285;-67
2022/11/05 12:29:52;;;;;;;5.57;1.50;;;10.50;99.90;;;;;;5013955;28;20786;-67
2022/11/05 12:32:54;;;;;;;5.27;1.53;;;10.50;99.90;;;;;;5012586;28;20046;-68
2022/11/05 12:35:23;;;;;;;6.73;1.80;;;10.50;99.90;;;;;;5013836;28;20281;-67
2022/11/05 12:38:15;;;;;;;5.07;1.60;;;10.40;99.90;;;;;;5013667;28;20285;-67
2022/11/05 12:40:45;;;;;;;5.27;1.57;;;10.50;99.90;;;;;;5013692;28;20339;-67
2022/11/05 12:43:38;;;;;;;5.37;1.40;;;10.50;99.90;;;;;;5014169;28;20291;-67
2022/11/05 12:46:43;;;;;;;6.10;1.90;;;10.50;99.90;;;;;;5014434;28;20321;-67
2022/11/05 12:49:36;;;;;;;7.00;1.60;;;10.50;99.90;;;;;;5013343;28;20447;-67
2022/11/05 12:52:38;;;;;;;4.67;1.60;;;10.60;99.90;;;;;;5014023;28;20300;-68
2022/11/05 12:55:06;;;;;;;6.57;1.90;;;10.70;99.90;;;;;;5013584;28;20314;-68
2022/11/05 12:57:36;;;;;;;8.17;2.30;;;10.80;99.90;;;;;;5013410;28;20321;-68
2022/11/05 13:00:29;;;;;;;5.47;1.97;;;10.80;99.90;;;;;;5013484;28;20279;-68
2022/11/05 13:03:09;;;;;;;7.57;2.03;;;10.80;99.90;;;;;;5013464;28;20335;-68
2022/11/05 13:05:43;;;;;;;6.70;2.40;;;10.90;99.90;;;;;;5013648;28;20304;-68
2022/11/05 13:08:11;;;;;;;7.97;2.67;;;11.00;99.90;;;;;;5013400;28;20281;-68
2022/11/05 13:10:41;;;;;;;7.17;2.43;;;11.00;99.90;;;;;;5013781;28;20306;-68
2022/11/05 13:13:25;;;;;;;9.07;3.20;;;11.10;99.90;;;;;;5013360;28;20289;-69
2022/11/05 13:16:14;;;;;;;10.40;3.60;;;11.10;99.90;;;;;;5013985;28;20288;-68
2022/11/05 13:18:53;;;;;;;8.87;3.57;;;11.20;99.90;;;;;;5013414;28;20733;-67
2022/11/05 13:21:22;;;;;;;9.23;3.10;;;11.20;99.90;;;;;;5013322;28;20760;-68
2022/11/05 13:24:11;;;;;;;11.50;3.80;;;11.20;99.90;;;;;;5013230;28;20327;-67
2022/11/05 13:27:15;;;;;;;8.83;3.20;;;11.20;99.90;;;;;;5013236;28;20285;-67
2022/11/05 13:29:49;;;;;;;8.67;3.60;;;11.20;99.90;;;;;;5012864;28;20308;-67
2022/11/05 13:32:23;;;;;;;11.40;3.27;;;11.20;99.90;;;;;;5013182;28;20355;-67
2022/11/05 13:34:53;;;;;;;16.48;3.90;;;11.30;99.90;;;;;;5013142;28;20359;-67
2022/11/05 13:40:16;;;;;;;7.53;3.00;;;11.30;99.90;;;;;;5013740;28;20281;-68
2022/11/05 13:42:48;;;;;;;9.43;3.37;;;11.30;99.90;;;;;;5012340;28;20336;-68
2022/11/05 13:45:32;;;;;;;7.07;2.80;;;11.30;99.90;;;;;;5013001;28;20289;-67
2022/11/05 13:48:26;;;;;;;14.67;3.93;;;11.30;99.90;;;;;;5012632;28;20362;-68
2022/11/05 13:51:28;;;;;;;10.00;3.90;;;11.20;99.90;;;;;;5013646;28;20273;-68
2022/11/05 13:54:06;;;;;;;11.30;3.17;;;11.20;99.90;;;;;;5012977;28;20281;-67
2022/11/05 13:56:40;;;;;;;9.13;2.93;;;11.20;99.90;;;;;;5012914;28;20323;-67
2022/11/05 13:59:28;;;;;;;16.05;3.70;;;11.20;99.90;;;;;;5012929;28;20277;-68
2022/11/05 14:01:57;;;;;;;10.50;3.47;;;11.20;99.90;;;;;;5014111;28;20108;-67
2022/11/05 14:04:35;;;;;;;8.67;3.70;;;11.20;99.90;;;;;;5016536;28;20276;-67
2022/11/05 14:07:16;;;;;;;8.37;3.13;;;11.20;99.90;;;;;;5017213;28;20281;-67